createdAt,value
2022-07-25T00:01:24.340Z,44.65
2022-07-25T00:03:51.118Z,44.85
2022-07-25T00:06:18.148Z,44.38
2022-07-25T00:08:45.018Z,45.19
2022-07-25T00:11:11.661Z,45.90
2022-07-25T00:13:38.376Z,45.70
2022-07-25T00:16:05.568Z,45.45
2022-07-25T00:18:32.337Z,45.61
2022-07-25T00:20:59.029Z,46.33
2022-07-25T00:23:25.737Z,46.87
2022-07-25T00:25:52.474Z,46.13
2022-07-25T00:28:19.111Z,46.44
2022-07-25T00:30:45.820Z,46.67
2022-07-25T00:33:12.530Z,46.75
2022-07-25T00:35:39.216Z,47.22
2022-07-25T00:38:05.862Z,47.10
2022-07-25T00:40:32.613Z,47.62
2022-07-25T00:42:59.302Z,48.48
2022-07-25T00:45:26.106Z,48.22
2022-07-25T00:47:52.765Z,48.83
2022-07-25T00:50:19.644Z,47.96
2022-07-25T00:52:46.421Z,48.71
2022-07-25T00:55:13.645Z,48.33
2022-07-25T00:57:40.652Z,48.35
2022-07-25T01:00:11.283Z,48.71
2022-07-25T01:02:37.987Z,48.16
2022-07-25T01:05:06.557Z,49.20
2022-07-25T01:07:33.213Z,48.58
2022-07-25T01:10:00.323Z,49.42
2022-07-25T01:12:27.295Z,49.00
2022-07-25T01:14:54.064Z,48.97
2022-07-25T01:17:20.694Z,49.90
2022-07-25T01:19:47.336Z,49.60
2022-07-25T01:22:14.082Z,49.09
2022-07-25T01:24:40.800Z,49.20
2022-07-25T01:27:07.461Z,49.61
2022-07-25T01:29:34.224Z,49.17
2022-07-25T01:32:02.819Z,49.44
2022-07-25T01:34:29.445Z,49.45
2022-07-25T01:36:56.061Z,49.50
2022-07-25T01:39:22.695Z,50.12
2022-07-25T01:41:49.387Z,51.16
2022-07-25T01:44:16.066Z,49.88
2022-07-25T01:46:42.808Z,50.17
2022-07-25T01:49:09.701Z,50.58
2022-07-25T01:51:36.428Z,50.83
2022-07-25T01:54:03.424Z,50.97
2022-07-25T01:56:32.431Z,50.59
2022-07-25T01:58:59.899Z,50.02
2022-07-25T02:01:26.882Z,50.78
2022-07-25T02:03:53.545Z,50.93
2022-07-25T02:06:20.232Z,50.69
2022-07-25T02:08:46.871Z,50.28
2022-07-25T02:11:13.577Z,50.50
2022-07-25T02:13:40.271Z,50.81
2022-07-25T02:16:06.896Z,51.23
2022-07-25T02:18:33.543Z,52.15
2022-07-25T02:21:00.173Z,51.61
2022-07-25T02:23:26.903Z,51.94
2022-07-25T02:25:53.549Z,52.15
2022-07-25T02:28:20.302Z,52.17
2022-07-25T02:30:46.995Z,52.90
2022-07-25T02:33:13.687Z,53.22
2022-07-25T02:35:40.325Z,52.02
2022-07-25T02:38:07.168Z,52.38
2022-07-25T02:40:33.818Z,52.22
2022-07-25T02:43:00.425Z,52.83
2022-07-25T02:45:27.067Z,52.91
2022-07-25T02:47:53.916Z,52.39
2022-07-25T02:50:20.540Z,51.60
2022-07-25T02:52:47.179Z,52.76
2022-07-25T02:55:13.844Z,53.24
2022-07-25T02:57:40.550Z,53.49
2022-07-25T03:00:07.830Z,53.62
2022-07-25T03:02:34.838Z,53.49
2022-07-25T03:05:01.540Z,53.21
2022-07-25T03:07:28.240Z,53.57
2022-07-25T03:09:54.867Z,53.52
2022-07-25T03:12:21.477Z,53.01
2022-07-25T03:14:48.350Z,53.39
2022-07-25T03:17:14.956Z,54.99
2022-07-25T03:19:41.671Z,54.08
2022-07-25T03:22:08.309Z,53.14
2022-07-25T03:24:34.987Z,53.27
2022-07-25T03:27:01.729Z,53.53
2022-07-25T03:29:28.362Z,52.68
2022-07-25T03:31:55.065Z,53.74
2022-07-25T03:34:21.783Z,52.67
2022-07-25T03:36:48.400Z,53.72
2022-07-25T03:39:15.022Z,54.38
2022-07-25T03:41:41.719Z,54.54
2022-07-25T03:44:08.900Z,54.35
2022-07-25T03:46:35.891Z,54.91
2022-07-25T03:49:02.627Z,54.83
2022-07-25T03:51:29.334Z,55.82
2022-07-25T03:53:56.046Z,55.27
2022-07-25T03:56:22.676Z,54.88
2022-07-25T03:58:49.494Z,56.18
2022-07-25T04:01:16.274Z,56.33
2022-07-25T04:03:43.282Z,56.07
2022-07-25T04:06:11.132Z,55.60
2022-07-25T04:08:37.806Z,56.60
2022-07-25T04:11:04.554Z,54.98
2022-07-25T04:13:31.321Z,57.15
2022-07-25T04:15:57.979Z,56.56
2022-07-25T04:18:28.519Z,57.32
2022-07-25T04:20:55.636Z,57.52
2022-07-25T04:23:22.252Z,57.89
2022-07-25T04:25:48.957Z,58.00
2022-07-25T04:28:15.668Z,58.87
2022-07-25T04:30:42.347Z,58.66
2022-07-25T04:33:09.001Z,57.91
2022-07-25T04:35:35.705Z,58.38
2022-07-25T04:38:02.372Z,58.57
2022-07-25T04:40:29.064Z,59.14
2022-07-25T04:42:55.735Z,59.63
2022-07-25T04:45:22.601Z,60.17
2022-07-25T04:47:49.883Z,59.94
2022-07-25T04:50:18.078Z,60.29
2022-07-25T04:52:46.600Z,59.91
2022-07-25T04:55:13.296Z,59.95
2022-07-25T04:57:39.999Z,60.47
2022-07-25T05:00:08.781Z,59.75
2022-07-25T05:02:36.265Z,59.67
2022-07-25T05:05:03.928Z,58.31
2022-07-25T05:07:30.692Z,58.35
2022-07-25T05:09:57.471Z,58.67
2022-07-25T05:12:24.108Z,56.71
2022-07-25T05:14:50.738Z,56.81
2022-07-25T05:17:17.393Z,57.82
2022-07-25T05:19:44.059Z,56.30
2022-07-25T05:22:10.777Z,56.77
2022-07-25T05:24:37.709Z,57.24
2022-07-25T05:27:05.580Z,55.50
2022-07-25T05:29:32.403Z,54.00
2022-07-25T05:31:59.115Z,54.12
2022-07-25T05:34:25.839Z,55.32
2022-07-25T05:36:52.549Z,53.83
2022-07-25T05:39:19.383Z,52.97
2022-07-25T05:41:46.071Z,51.30
2022-07-25T05:44:12.721Z,53.36
2022-07-25T05:46:39.398Z,52.00
2022-07-25T05:49:06.150Z,50.21
2022-07-25T05:51:32.808Z,48.14
2022-07-25T05:53:59.590Z,49.87
2022-07-25T05:56:26.245Z,50.37
2022-07-25T05:58:52.957Z,50.31
2022-07-25T06:01:19.760Z,48.41
2022-07-25T06:03:46.412Z,46.92
2022-07-25T06:06:13.030Z,47.75
2022-07-25T06:08:39.749Z,48.10
2022-07-25T06:11:07.358Z,47.50
2022-07-25T06:13:35.502Z,48.13
2022-07-25T06:16:03.360Z,47.86
2022-07-25T06:18:30.101Z,46.76
2022-07-25T06:20:56.749Z,47.72
2022-07-25T06:23:23.395Z,46.71
2022-07-25T06:25:54.269Z,46.49
2022-07-25T06:28:20.906Z,44.50
2022-07-25T06:30:47.971Z,43.72
2022-07-25T06:33:14.665Z,43.92
2022-07-25T06:35:41.322Z,43.21
2022-07-25T06:38:07.959Z,42.86
2022-07-25T06:40:34.603Z,43.13
2022-07-25T06:43:01.293Z,43.95
2022-07-25T06:45:27.985Z,44.08
2022-07-25T06:47:54.647Z,41.75
2022-07-25T06:50:21.677Z,41.77
2022-07-25T06:52:48.327Z,42.05
2022-07-25T06:55:15.977Z,40.29
2022-07-25T06:57:43.574Z,40.95
2022-07-25T07:00:12.514Z,40.56
2022-07-25T07:02:50.180Z,39.58
2022-07-25T07:05:17.059Z,40.00
2022-07-25T07:07:47.620Z,41.47
2022-07-25T07:10:15.615Z,40.69
2022-07-25T07:12:42.260Z,40.36
2022-07-25T07:15:09.716Z,40.08
2022-07-25T07:17:36.397Z,40.59
2022-07-25T07:20:04.642Z,39.94
2022-07-25T07:22:31.304Z,40.20
2022-07-25T07:24:57.973Z,38.42
2022-07-25T07:27:24.701Z,39.56
2022-07-25T07:29:51.315Z,38.02
2022-07-25T07:32:18.428Z,39.66
2022-07-25T07:34:45.061Z,37.91
2022-07-25T07:37:11.663Z,40.35
2022-07-25T07:39:38.388Z,37.28
2022-07-25T07:42:05.111Z,38.37
2022-07-25T07:44:31.754Z,37.48
2022-07-25T07:46:58.480Z,38.71
2022-07-25T07:49:25.208Z,37.35
2022-07-25T07:51:51.887Z,38.25
2022-07-25T07:54:18.502Z,37.44
2022-07-25T07:56:45.146Z,38.90
2022-07-25T07:59:11.950Z,36.96
2022-07-25T08:01:38.696Z,37.30
2022-07-25T08:04:05.682Z,36.76
2022-07-25T08:06:32.312Z,35.42
2022-07-25T08:08:58.948Z,35.95
2022-07-25T08:11:25.594Z,36.08
2022-07-25T08:13:52.383Z,35.88
2022-07-25T08:16:19.217Z,35.33
2022-07-25T08:18:46.004Z,35.57
2022-07-25T08:21:12.613Z,35.44
2022-07-25T08:23:39.620Z,34.92
2022-07-25T08:26:07.338Z,35.79
2022-07-25T08:28:33.976Z,36.17
2022-07-25T08:31:00.796Z,34.97
2022-07-25T08:33:27.499Z,35.28
2022-07-25T08:35:55.684Z,35.34
2022-07-25T08:38:24.028Z,35.31
2022-07-25T08:40:51.390Z,34.36
2022-07-25T08:43:18.417Z,34.58
2022-07-25T08:45:50.368Z,34.30
2022-07-25T08:48:19.008Z,34.50
2022-07-25T08:50:47.384Z,34.65
2022-07-25T08:53:32.807Z,34.61
2022-07-25T08:56:00.534Z,32.89
2022-07-25T08:58:27.256Z,34.83
2022-07-25T09:00:53.922Z,32.73
2022-07-25T09:03:20.574Z,34.00
2022-07-25T09:05:47.459Z,32.46
2022-07-25T09:08:16.222Z,34.13
2022-07-25T09:10:53.476Z,33.27
2022-07-25T09:13:21.951Z,33.35
2022-07-25T09:15:51.444Z,33.74
2022-07-25T09:18:23.358Z,33.08
2022-07-25T09:20:53.500Z,33.62
2022-07-25T09:23:35.026Z,32.35
2022-07-25T09:26:10.716Z,32.17
2022-07-25T09:28:45.946Z,32.28
2022-07-25T09:31:13.683Z,33.83
2022-07-25T09:33:51.867Z,32.42
2022-07-25T09:36:18.759Z,33.19
2022-07-25T09:38:59.620Z,32.08
2022-07-25T09:41:37.206Z,31.27
2022-07-25T09:44:14.820Z,31.83
2022-07-25T09:46:41.525Z,31.68
2022-07-25T09:49:08.282Z,31.60
2022-07-25T09:51:35.274Z,31.91
2022-07-25T09:54:04.626Z,31.95
2022-07-25T09:56:32.358Z,31.66
2022-07-25T09:58:59.194Z,31.34
2022-07-25T10:01:37.103Z,32.65
2022-07-25T10:04:14.795Z,31.73
2022-07-25T10:06:57.802Z,32.06
2022-07-25T10:09:24.634Z,32.03
2022-07-25T10:12:09.639Z,30.72
2022-07-25T10:14:38.219Z,32.35
2022-07-25T10:17:06.158Z,31.57
2022-07-25T10:19:44.799Z,31.43
2022-07-25T10:22:16.093Z,32.52
2022-07-25T10:24:47.186Z,31.51
2022-07-25T10:27:21.307Z,32.15
2022-07-25T10:29:53.177Z,28.87
2022-07-25T10:32:19.848Z,29.12
2022-07-25T10:34:54.147Z,30.76
2022-07-25T10:37:28.334Z,29.99
2022-07-25T10:39:55.622Z,29.79
2022-07-25T10:42:24.082Z,30.53
2022-07-25T10:44:54.943Z,28.70
2022-07-25T10:47:24.350Z,29.01
2022-07-25T10:50:16.641Z,27.91
2022-07-25T10:52:44.589Z,29.66
2022-07-25T10:55:22.721Z,28.95
2022-07-25T10:58:16.987Z,30.13
2022-07-25T11:00:44.505Z,28.87
2022-07-25T11:03:17.561Z,28.11
2022-07-25T11:05:48.590Z,29.11
2022-07-25T11:08:21.995Z,27.45
2022-07-25T11:10:52.190Z,27.43
2022-07-25T11:13:18.968Z,28.46
2022-07-25T11:15:46.730Z,27.95
2022-07-25T11:18:13.397Z,28.57
2022-07-25T11:20:40.095Z,26.58
2022-07-25T11:23:06.790Z,27.32
2022-07-25T11:25:33.402Z,27.78
2022-07-25T11:28:01.103Z,28.74
2022-07-25T11:30:28.084Z,28.83
2022-07-25T11:32:58.847Z,28.58
2022-07-25T11:35:28.850Z,27.98
2022-07-25T11:37:56.701Z,30.12
2022-07-25T11:40:24.121Z,28.61
2022-07-25T11:42:53.426Z,26.44
2022-07-25T11:45:23.703Z,28.24
2022-07-25T11:48:11.753Z,26.63
2022-07-25T11:50:41.624Z,27.93
2022-07-25T11:53:11.102Z,27.64
2022-07-25T11:55:39.532Z,26.59
2022-07-25T11:58:06.969Z,24.98
2022-07-25T12:00:45.800Z,25.56
2022-07-25T12:03:19.501Z,25.74
2022-07-25T12:05:47.458Z,25.22
2022-07-25T12:08:19.051Z,25.09
2022-07-25T12:10:47.907Z,25.02
2022-07-25T12:13:29.644Z,26.66
2022-07-25T12:15:57.980Z,24.51
2022-07-25T12:18:24.799Z,25.44
2022-07-25T12:20:51.837Z,23.79
2022-07-25T12:23:19.033Z,24.11
2022-07-25T12:25:46.962Z,24.43
2022-07-25T12:28:14.705Z,23.57
2022-07-25T12:30:43.074Z,22.12
2022-07-25T12:33:10.590Z,23.35
2022-07-25T12:35:37.393Z,22.15
2022-07-25T12:38:04.572Z,22.63
2022-07-25T12:40:31.586Z,24.09
2022-07-25T12:42:58.432Z,25.20
2022-07-25T12:45:25.228Z,24.35
2022-07-25T12:47:51.933Z,23.28
2022-07-25T12:50:19.075Z,24.20
2022-07-25T12:52:47.099Z,23.47
2022-07-25T12:55:16.905Z,22.92
2022-07-25T12:57:44.060Z,23.58
2022-07-25T13:00:14.499Z,23.30
2022-07-25T13:02:41.469Z,21.83
2022-07-25T13:05:08.642Z,22.47
2022-07-25T13:07:35.456Z,23.40
2022-07-25T13:10:02.568Z,22.41
2022-07-25T13:12:29.261Z,21.22
2022-07-25T13:14:56.198Z,23.43
2022-07-25T13:17:27.164Z,22.49
2022-07-25T13:19:55.730Z,23.67
2022-07-25T13:22:22.471Z,23.10
2022-07-25T13:24:49.205Z,21.83
2022-07-25T13:27:18.739Z,22.64
2022-07-25T13:29:45.449Z,23.94
2022-07-25T13:32:12.186Z,22.64
2022-07-25T13:34:39.161Z,22.96
2022-07-25T13:37:05.792Z,22.49
2022-07-25T13:39:32.532Z,22.68
2022-07-25T13:41:59.171Z,23.80
2022-07-25T13:44:25.794Z,22.99
2022-07-25T13:46:52.565Z,23.98
2022-07-25T13:49:19.282Z,21.82
2022-07-25T13:51:45.957Z,22.91
2022-07-25T13:54:12.837Z,21.16
2022-07-25T13:56:39.506Z,22.59
2022-07-25T13:59:06.485Z,21.20
2022-07-25T14:01:33.298Z,21.53
2022-07-25T14:03:59.938Z,21.61
2022-07-25T14:06:26.573Z,20.08
2022-07-25T14:08:53.286Z,20.96
2022-07-25T14:11:19.993Z,19.72
2022-07-25T14:13:46.678Z,20.45
2022-07-25T14:16:14.847Z,21.18
2022-07-25T14:18:41.502Z,20.77
2022-07-25T14:21:08.205Z,20.57
2022-07-25T14:23:34.827Z,20.85
2022-07-25T14:26:01.526Z,21.45
2022-07-25T14:28:28.315Z,20.88
2022-07-25T14:30:55.051Z,21.13
2022-07-25T14:33:21.761Z,21.45
2022-07-25T14:35:48.401Z,21.37
2022-07-25T14:38:15.193Z,22.09
2022-07-25T14:40:42.116Z,22.06
2022-07-25T14:43:08.752Z,21.05
2022-07-25T14:45:35.506Z,20.96
2022-07-25T14:48:02.185Z,21.33
2022-07-25T14:50:28.843Z,20.27
2022-07-25T14:52:55.468Z,20.76
2022-07-25T14:55:22.119Z,21.47
2022-07-25T14:57:48.848Z,21.58
2022-07-25T15:00:15.728Z,20.32
2022-07-25T15:02:42.344Z,20.62
2022-07-25T15:05:09.464Z,22.00
2022-07-25T15:07:37.677Z,20.74
2022-07-25T15:10:04.750Z,20.73
2022-07-25T15:12:31.446Z,21.08
2022-07-25T15:14:58.125Z,20.57
2022-07-25T15:17:25.044Z,19.93
2022-07-25T15:19:51.791Z,20.89
2022-07-25T15:22:18.462Z,20.55
2022-07-25T15:25:17.913Z,21.60
2022-07-25T15:27:32.241Z,20.39
2022-07-25T15:29:58.877Z,19.95
2022-07-25T15:32:25.642Z,20.78
2022-07-25T15:34:52.319Z,19.57
2022-07-25T15:37:18.968Z,19.98
2022-07-25T15:39:45.578Z,21.01
2022-07-25T15:42:12.261Z,21.53
2022-07-25T15:44:38.891Z,19.78
2022-07-25T15:47:08.830Z,19.77
2022-07-25T15:49:37.106Z,20.06
2022-07-25T15:52:04.064Z,19.26
2022-07-25T15:54:30.718Z,19.93
2022-07-25T15:56:57.672Z,20.08
2022-07-25T15:59:24.396Z,20.27
2022-07-25T16:01:51.034Z,18.94
2022-07-25T16:04:17.917Z,19.60
2022-07-25T16:06:44.830Z,20.50
2022-07-25T16:09:11.584Z,21.10
2022-07-25T16:11:38.875Z,20.93
2022-07-25T16:14:05.509Z,20.34
2022-07-25T16:16:32.399Z,20.02
2022-07-25T16:18:59.081Z,19.45
2022-07-25T16:21:25.761Z,20.66
2022-07-25T16:23:52.461Z,20.08
2022-07-25T16:26:19.239Z,20.83
2022-07-25T16:28:47.051Z,20.22
2022-07-25T16:31:13.801Z,20.06
2022-07-25T16:33:40.487Z,20.56
2022-07-25T16:36:07.786Z,20.41
2022-07-25T16:38:34.520Z,19.61
2022-07-25T16:41:01.199Z,19.45
2022-07-25T16:43:27.835Z,19.57
2022-07-25T16:45:54.590Z,19.47
2022-07-25T16:48:21.365Z,18.96
2022-07-25T16:50:48.010Z,18.28
2022-07-25T16:53:14.752Z,18.22
2022-07-25T16:55:41.567Z,19.16
2022-07-25T16:58:08.212Z,21.17
2022-07-25T17:00:34.935Z,20.09
2022-07-25T17:03:01.583Z,19.00
2022-07-25T17:05:28.242Z,19.81
2022-07-25T17:07:59.436Z,20.30
2022-07-25T17:10:27.561Z,18.96
2022-07-25T17:12:54.606Z,20.63
2022-07-25T17:15:21.591Z,20.91
2022-07-25T17:17:48.331Z,21.73
2022-07-25T17:20:15.082Z,23.46
2022-07-25T17:22:41.708Z,24.27
2022-07-25T17:25:08.723Z,23.74
2022-07-25T17:27:35.603Z,24.04
2022-07-25T17:30:02.223Z,24.09
2022-07-25T17:32:30.102Z,23.04
2022-07-25T17:34:57.837Z,24.83
2022-07-25T17:37:24.990Z,23.21
2022-07-25T17:39:51.665Z,24.59
2022-07-25T17:42:18.267Z,24.73
2022-07-25T17:44:44.887Z,24.66
2022-07-25T17:47:11.606Z,24.30
2022-07-25T17:49:38.287Z,24.96
2022-07-25T17:52:05.061Z,24.79
2022-07-25T17:54:31.755Z,25.13
2022-07-25T17:56:58.388Z,25.97
2022-07-25T17:59:25.095Z,27.16
2022-07-25T18:01:51.821Z,28.19
2022-07-25T18:04:18.531Z,27.06
2022-07-25T18:06:45.171Z,26.72
2022-07-25T18:09:12.080Z,26.65
2022-07-25T18:11:38.795Z,27.41
2022-07-25T18:14:05.722Z,27.66
2022-07-25T18:16:32.937Z,26.83
2022-07-25T18:18:59.750Z,27.73
2022-07-25T18:21:26.492Z,26.86
2022-07-25T18:23:53.138Z,26.19
2022-07-25T18:26:19.907Z,26.13
2022-07-25T18:28:46.653Z,27.06
2022-07-25T18:31:13.551Z,27.73
2022-07-25T18:33:40.249Z,27.80
2022-07-25T18:36:07.707Z,29.75
2022-07-25T18:38:35.839Z,29.16
2022-07-25T18:41:27.487Z,29.96
2022-07-25T18:43:51.555Z,28.33
2022-07-25T18:46:18.634Z,28.33
2022-07-25T18:48:45.859Z,29.14
2022-07-25T18:51:12.581Z,30.01
2022-07-25T18:53:39.267Z,30.43
2022-07-25T18:56:06.263Z,30.01
2022-07-25T18:58:33.022Z,29.18
2022-07-25T19:00:59.798Z,29.53
2022-07-25T19:03:26.427Z,29.71
2022-07-25T19:05:53.093Z,30.29
2022-07-25T19:08:19.974Z,31.17
2022-07-25T19:10:46.681Z,30.77
2022-07-25T19:13:32.604Z,31.94
2022-07-25T19:16:02.167Z,32.57
2022-07-25T19:18:29.606Z,32.28
2022-07-25T19:20:56.323Z,32.70
2022-07-25T19:23:22.971Z,31.68
2022-07-25T19:25:49.665Z,31.94
2022-07-25T19:28:16.463Z,31.39
2022-07-25T19:30:43.148Z,31.69
2022-07-25T19:33:10.191Z,31.84
2022-07-25T19:35:36.953Z,32.90
2022-07-25T19:38:04.528Z,33.38
2022-07-25T19:40:32.733Z,32.20
2022-07-25T19:43:01.030Z,32.93
2022-07-25T19:45:28.031Z,32.59
2022-07-25T19:47:54.682Z,32.06
2022-07-25T19:50:21.340Z,32.49
2022-07-25T19:52:48.124Z,32.13
2022-07-25T19:55:14.760Z,32.43
2022-07-25T19:57:41.359Z,32.00
2022-07-25T20:00:08.364Z,31.63
2022-07-25T20:02:35.166Z,32.80
2022-07-25T20:05:02.019Z,32.47
2022-07-25T20:07:28.687Z,33.12
2022-07-25T20:09:55.310Z,33.20
2022-07-25T20:12:22.130Z,33.25
2022-07-25T20:14:48.785Z,32.74
2022-07-25T20:17:15.466Z,33.34
2022-07-25T20:19:42.161Z,32.41
2022-07-25T20:22:09.394Z,33.34
2022-07-25T20:24:36.139Z,32.84
2022-07-25T20:27:02.921Z,32.91
2022-07-25T20:29:29.561Z,33.10
2022-07-25T20:31:56.349Z,32.86
2022-07-25T20:34:23.020Z,34.05
2022-07-25T20:36:49.731Z,34.70
2022-07-25T20:39:16.426Z,35.15
2022-07-25T20:41:43.187Z,34.25
2022-07-25T20:44:11.453Z,35.33
2022-07-25T20:46:38.236Z,35.02
2022-07-25T20:49:07.019Z,35.12
2022-07-25T20:51:36.282Z,35.64
2022-07-25T20:54:04.210Z,34.81
2022-07-25T20:56:30.831Z,35.30
2022-07-25T20:58:57.470Z,36.11
2022-07-25T21:01:24.173Z,36.01
2022-07-25T21:03:51.033Z,36.12
2022-07-25T21:06:17.698Z,36.32
2022-07-25T21:08:44.416Z,36.84
2022-07-25T21:11:11.025Z,35.35
2022-07-25T21:13:37.665Z,36.51
2022-07-25T21:16:05.126Z,37.21
2022-07-25T21:18:31.768Z,37.36
2022-07-25T21:20:58.409Z,37.26
2022-07-25T21:23:25.210Z,37.33
2022-07-25T21:25:52.103Z,37.82
2022-07-25T21:28:18.747Z,38.13
2022-07-25T21:30:45.643Z,37.51
2022-07-25T21:33:14.710Z,37.41
2022-07-25T21:35:50.441Z,36.76
2022-07-25T21:38:26.702Z,37.09
2022-07-25T21:40:54.641Z,37.41
2022-07-25T21:43:21.319Z,38.39
2022-07-25T21:45:48.038Z,38.35
2022-07-25T21:48:15.010Z,38.14
2022-07-25T21:50:43.553Z,39.53
2022-07-25T21:53:13.596Z,38.90
2022-07-25T21:55:40.504Z,38.82
2022-07-25T21:58:08.255Z,39.75
2022-07-25T22:00:38.846Z,39.17
2022-07-25T22:03:10.954Z,39.45
2022-07-25T22:05:37.583Z,39.15
2022-07-25T22:08:04.551Z,40.05
2022-07-25T22:10:31.203Z,40.03
2022-07-25T22:12:57.835Z,38.25
2022-07-25T22:15:24.476Z,38.53
2022-07-25T22:17:51.183Z,38.79
2022-07-25T22:20:19.677Z,37.39
2022-07-25T22:22:49.655Z,36.96
2022-07-25T22:25:16.964Z,36.73
2022-07-25T22:27:44.007Z,37.26
2022-07-25T22:30:16.161Z,36.97
2022-07-25T22:32:46.141Z,36.76
2022-07-25T22:35:12.952Z,37.08
2022-07-25T22:37:39.594Z,36.94
2022-07-25T22:40:06.795Z,36.83
2022-07-25T22:42:33.431Z,37.55
2022-07-25T22:45:00.267Z,37.90
2022-07-25T22:47:26.998Z,37.28
2022-07-25T22:49:53.616Z,36.81
2022-07-25T22:52:20.260Z,37.71
2022-07-25T22:54:47.052Z,37.33
2022-07-25T22:57:13.687Z,37.56
2022-07-25T22:59:40.304Z,37.69
2022-07-25T23:02:07.052Z,36.81
2022-07-25T23:04:33.757Z,37.54
2022-07-25T23:07:00.442Z,37.34
2022-07-25T23:09:36.405Z,38.54
2022-07-25T23:12:04.598Z,38.73
2022-07-25T23:14:31.262Z,39.19
2022-07-25T23:16:57.977Z,40.24
2022-07-25T23:19:24.661Z,40.28
2022-07-25T23:21:51.301Z,40.78
2022-07-25T23:24:17.958Z,38.80
2022-07-25T23:26:44.590Z,41.03
2022-07-25T23:29:11.452Z,41.67
2022-07-25T23:31:38.231Z,42.58
2022-07-25T23:34:05.024Z,41.86
2022-07-25T23:36:31.655Z,41.07
2022-07-25T23:38:58.283Z,41.32
2022-07-25T23:41:24.973Z,42.51
2022-07-25T23:43:59.072Z,41.49
2022-07-25T23:46:29.293Z,41.56
2022-07-25T23:48:58.438Z,41.04
2022-07-25T23:51:25.213Z,42.65
2022-07-25T23:53:51.824Z,41.98
2022-07-25T23:56:20.989Z,42.14
2022-07-25T23:58:48.340Z,41.88
